createdAt,value
2018-07-30T00:02:01.979Z,96.00
2018-07-30T00:04:30.321Z,96.30
2018-07-30T00:06:58.614Z,96.70
2018-07-30T00:09:26.836Z,96.90
2018-07-30T00:11:55.143Z,96.90
2018-07-30T00:14:23.398Z,97.00
2018-07-30T00:16:51.686Z,97.40
2018-07-30T00:19:19.962Z,97.70
2018-07-30T00:21:48.315Z,97.70
2018-07-30T00:24:16.609Z,97.70
2018-07-30T00:26:45.313Z,97.80
2018-07-30T00:31:41.650Z,97.80
2018-07-30T00:34:09.950Z,97.90
2018-07-30T00:36:38.281Z,98.10
2018-07-30T00:39:09.238Z,98.30
2018-07-30T00:41:37.533Z,98.40
2018-07-30T00:44:06.006Z,98.40
2018-07-30T00:46:34.325Z,98.50
2018-07-30T00:49:02.572Z,98.80
2018-07-30T00:51:30.927Z,98.80
2018-07-30T00:53:59.359Z,98.90
2018-07-30T00:56:27.902Z,99.10
2018-07-30T00:58:56.211Z,99.40
2018-07-30T01:01:24.465Z,99.80
2018-07-30T01:03:52.837Z,99.90
2018-07-30T01:06:21.098Z,99.90
2018-07-30T01:08:49.354Z,99.90
2018-07-30T01:11:17.634Z,99.90
2018-07-30T01:13:46.110Z,99.90
2018-07-30T01:16:14.438Z,99.90
2018-07-30T01:21:10.762Z,99.90
2018-07-30T01:23:39.869Z,99.90
2018-07-30T01:26:13.546Z,99.90
2018-07-30T01:28:41.830Z,99.90
2018-07-30T01:31:10.122Z,99.90
2018-07-30T01:33:38.449Z,99.90
2018-07-30T01:36:07.098Z,99.90
2018-07-30T01:38:35.478Z,99.90
2018-07-30T01:41:03.787Z,99.90
2018-07-30T01:43:33.609Z,99.90
2018-07-30T01:46:02.882Z,99.90
2018-07-30T01:48:31.136Z,99.90
2018-07-30T01:50:59.426Z,99.90
2018-07-30T01:55:56.417Z,99.90
2018-07-30T01:58:24.749Z,99.90
2018-07-30T02:00:53.069Z,99.90
2018-07-30T02:03:21.298Z,99.90
2018-07-30T02:05:49.663Z,99.90
2018-07-30T02:08:17.997Z,99.90
2018-07-30T02:10:46.306Z,99.90
2018-07-30T02:13:14.747Z,99.90
2018-07-30T02:15:43.063Z,99.90
2018-07-30T02:18:11.325Z,99.90
2018-07-30T02:20:39.726Z,99.90
2018-07-30T02:23:08.191Z,99.90
2018-07-30T02:25:36.496Z,99.90
2018-07-30T02:28:04.896Z,99.90
2018-07-30T02:30:33.202Z,99.90
2018-07-30T02:39:45.788Z,99.90
2018-07-30T02:42:14.122Z,99.90
2018-07-30T02:44:42.366Z,99.90
2018-07-30T02:47:10.659Z,99.90
2018-07-30T02:49:38.928Z,99.90
2018-07-30T02:52:07.242Z,99.90
2018-07-30T02:54:35.555Z,99.90
2018-07-30T02:57:03.892Z,99.90
2018-07-30T02:59:32.210Z,99.90
2018-07-30T03:02:00.589Z,99.90
2018-07-30T03:04:28.874Z,99.90
2018-07-30T03:06:57.154Z,99.90
2018-07-30T03:09:25.480Z,99.90
2018-07-30T03:11:53.687Z,99.90
2018-07-30T03:14:21.934Z,99.90
2018-07-30T03:16:50.162Z,99.90
2018-07-30T03:19:18.381Z,99.90
2018-07-30T03:21:46.652Z,99.90
2018-07-30T03:24:14.942Z,99.90
2018-07-30T03:26:43.218Z,99.90
2018-07-30T03:29:11.659Z,99.90
2018-07-30T03:31:39.919Z,99.90
2018-07-30T03:34:08.178Z,99.90
2018-07-30T03:36:36.479Z,99.90
2018-07-30T03:39:07.029Z,99.90
2018-07-30T03:41:35.383Z,99.90
2018-07-30T03:44:03.819Z,99.90
2018-07-30T03:46:32.055Z,99.90
2018-07-30T03:49:00.326Z,99.90
2018-07-30T03:51:28.656Z,99.90
2018-07-30T03:53:57.862Z,99.90
2018-07-30T03:56:26.146Z,99.90
2018-07-30T03:58:54.442Z,99.90
2018-07-30T04:01:22.820Z,99.90
2018-07-30T04:03:51.326Z,99.90
2018-07-30T04:08:47.670Z,99.90
2018-07-30T04:11:15.977Z,99.90
2018-07-30T04:13:44.258Z,99.90
2018-07-30T04:16:12.627Z,99.90
2018-07-30T04:18:40.859Z,99.90
2018-07-30T04:21:09.178Z,99.90
2018-07-30T04:23:37.455Z,99.90
2018-07-30T04:26:05.743Z,99.90
2018-07-30T04:28:34.047Z,99.90
2018-07-30T04:31:02.339Z,99.90
2018-07-30T04:33:30.669Z,99.90
2018-07-30T04:35:58.897Z,99.90
2018-07-30T04:38:27.221Z,99.90
2018-07-30T04:40:55.557Z,99.90
2018-07-30T04:43:23.834Z,99.90
2018-07-30T04:48:20.114Z,99.90
2018-07-30T04:50:48.395Z,99.90
2018-07-30T04:53:16.665Z,99.90
2018-07-30T04:55:44.974Z,99.90
2018-07-30T04:58:13.298Z,99.90
2018-07-30T05:00:41.608Z,99.90
2018-07-30T05:03:09.853Z,99.90
2018-07-30T05:05:39.162Z,99.90
2018-07-30T05:08:07.445Z,99.90
2018-07-30T05:10:36.211Z,99.90
2018-07-30T05:13:04.515Z,99.90
2018-07-30T05:15:32.831Z,99.90
2018-07-30T05:18:01.158Z,99.90
2018-07-30T05:20:29.482Z,99.90
2018-07-30T05:22:57.752Z,99.90
2018-07-30T05:25:26.059Z,99.90
2018-07-30T05:27:54.299Z,99.90
2018-07-30T05:30:22.559Z,99.90
2018-07-30T05:32:50.831Z,99.90
2018-07-30T05:35:19.130Z,99.90
2018-07-30T05:37:47.447Z,99.90
2018-07-30T05:40:15.669Z,99.90
2018-07-30T05:42:43.863Z,99.90
2018-07-30T05:45:12.101Z,99.90
2018-07-30T05:47:40.596Z,99.90
2018-07-30T05:50:08.874Z,99.90
2018-07-30T05:52:37.031Z,99.90
2018-07-30T05:55:05.486Z,99.90
2018-07-30T05:57:33.683Z,99.90
2018-07-30T06:00:01.912Z,99.70
2018-07-30T06:02:30.450Z,99.80
2018-07-30T06:04:58.674Z,99.70
2018-07-30T06:07:26.952Z,99.00
2018-07-30T06:09:55.171Z,98.70
2018-07-30T06:12:23.405Z,98.40
2018-07-30T06:17:20.697Z,97.60
2018-07-30T06:22:16.842Z,95.70
2018-07-30T06:24:45.553Z,95.20
2018-07-30T06:27:14.555Z,94.40
2018-07-30T06:29:42.718Z,93.60
2018-07-30T06:32:11.978Z,93.20
2018-07-30T06:34:40.293Z,92.90
2018-07-30T06:37:08.685Z,92.60
2018-07-30T06:39:37.053Z,92.10
2018-07-30T06:42:05.237Z,91.90
2018-07-30T06:44:33.553Z,91.20
2018-07-30T06:47:01.902Z,90.80
2018-07-30T06:49:30.111Z,90.40
2018-07-30T06:51:58.375Z,90.20
2018-07-30T06:54:26.657Z,88.80
2018-07-30T06:56:54.932Z,85.50
2018-07-30T06:59:23.235Z,85.70
2018-07-30T07:01:52.304Z,85.30
2018-07-30T07:04:20.786Z,85.00
2018-07-30T07:06:49.375Z,84.30
2018-07-30T07:09:17.677Z,82.40
2018-07-30T07:11:46.076Z,82.10
2018-07-30T07:14:14.371Z,82.60
2018-07-30T07:16:42.912Z,82.80
2018-07-30T07:19:11.002Z,82.60
2018-07-30T07:21:39.385Z,82.50
2018-07-30T07:24:07.606Z,82.90
2018-07-30T07:26:35.923Z,82.20
2018-07-30T07:29:04.354Z,82.00
2018-07-30T07:31:33.611Z,81.00
2018-07-30T07:34:01.959Z,78.90
2018-07-30T07:38:58.339Z,77.30
2018-07-30T07:41:27.593Z,76.80
2018-07-30T07:43:55.872Z,77.10
2018-07-30T07:46:24.207Z,77.10
2018-07-30T07:48:52.547Z,76.90
2018-07-30T07:53:49.214Z,76.80
2018-07-30T07:56:17.590Z,77.00
2018-07-30T07:58:46.040Z,76.80
2018-07-30T08:01:14.423Z,75.00
2018-07-30T08:03:42.779Z,74.60
2018-07-30T08:06:11.192Z,74.00
2018-07-30T08:08:39.507Z,74.40
2018-07-30T08:11:07.834Z,74.40
2018-07-30T08:13:36.136Z,73.70
2018-07-30T08:16:04.643Z,71.80
2018-07-30T08:18:33.025Z,70.80
2018-07-30T08:21:01.306Z,70.80
2018-07-30T08:23:29.770Z,70.60
2018-07-30T08:25:58.069Z,69.70
2018-07-30T08:28:26.384Z,68.80
2018-07-30T08:30:54.980Z,68.30
2018-07-30T08:33:23.391Z,66.70
2018-07-30T08:35:51.746Z,64.90
2018-07-30T08:38:20.016Z,64.40
2018-07-30T08:40:48.331Z,64.10
2018-07-30T08:43:16.570Z,62.90
2018-07-30T08:45:44.957Z,61.20
2018-07-30T08:48:13.300Z,60.10
2018-07-30T08:50:41.701Z,59.60
2018-07-30T08:55:38.604Z,58.70
2018-07-30T08:58:06.949Z,57.00
2018-07-30T09:00:35.402Z,56.10
2018-07-30T09:03:03.882Z,56.30
2018-07-30T09:08:00.887Z,55.10
2018-07-30T09:10:29.213Z,52.50
2018-07-30T09:12:57.659Z,51.60
2018-07-30T09:15:26.001Z,51.50
2018-07-30T09:17:54.507Z,52.00
2018-07-30T09:20:23.062Z,51.00
2018-07-30T09:22:52.059Z,51.00
2018-07-30T09:25:21.370Z,51.40
2018-07-30T09:27:49.964Z,50.90
2018-07-30T09:30:18.245Z,50.80
2018-07-30T09:32:46.524Z,49.40
2018-07-30T09:35:15.118Z,48.80
2018-07-30T09:37:43.427Z,48.20
2018-07-30T09:40:11.766Z,47.70
2018-07-30T09:42:40.091Z,46.70
2018-07-30T09:47:36.485Z,45.50
2018-07-30T09:50:05.410Z,46.90
2018-07-30T09:52:33.798Z,49.10
2018-07-30T09:55:02.098Z,49.20
2018-07-30T09:57:30.719Z,49.20
2018-07-30T09:59:59.125Z,48.80
2018-07-30T10:02:27.808Z,48.10
2018-07-30T10:04:56.192Z,47.50
2018-07-30T10:07:25.266Z,47.10
2018-07-30T10:09:53.932Z,46.30
2018-07-30T10:12:22.194Z,45.10
2018-07-30T10:14:50.521Z,44.80
2018-07-30T10:17:18.986Z,44.30
2018-07-30T10:19:47.299Z,43.70
2018-07-30T10:22:15.630Z,43.50
2018-07-30T10:24:43.896Z,43.20
2018-07-30T10:27:12.142Z,43.40
2018-07-30T10:29:40.694Z,43.00
2018-07-30T10:32:09.544Z,42.70
2018-07-30T10:34:37.925Z,42.50
2018-07-30T10:39:34.647Z,41.80
2018-07-30T10:42:02.965Z,41.30
2018-07-30T10:44:31.377Z,40.70
2018-07-30T10:46:59.613Z,40.60
2018-07-30T10:49:27.869Z,40.20
2018-07-30T10:51:56.348Z,40.50
2018-07-30T10:54:25.000Z,40.30
2018-07-30T10:56:53.225Z,40.70
2018-07-30T10:59:21.444Z,39.20
2018-07-30T11:01:49.694Z,38.20
2018-07-30T11:04:17.970Z,37.30
2018-07-30T11:06:46.333Z,37.20
2018-07-30T11:09:15.394Z,36.90
2018-07-30T11:11:43.685Z,36.20
2018-07-30T11:14:12.062Z,35.90
2018-07-30T11:16:40.354Z,35.10
2018-07-30T11:19:08.625Z,33.50
2018-07-30T11:21:37.803Z,33.00
2018-07-30T11:24:06.274Z,32.20
2018-07-30T11:26:35.618Z,32.30
2018-07-30T11:29:03.893Z,32.70
2018-07-30T11:31:32.754Z,32.40
2018-07-30T11:34:01.671Z,32.50
2018-07-30T11:36:30.308Z,32.00
2018-07-30T11:38:58.582Z,30.80
2018-07-30T11:41:26.815Z,29.20
2018-07-30T11:43:55.086Z,28.40
2018-07-30T11:46:23.311Z,28.20
2018-07-30T11:48:51.614Z,27.90
2018-07-30T11:51:20.008Z,27.70
2018-07-30T11:53:48.303Z,28.00
2018-07-30T11:56:16.671Z,28.30
2018-07-30T11:58:45.147Z,27.10
2018-07-30T12:01:13.525Z,26.40
2018-07-30T12:03:41.918Z,25.10
2018-07-30T12:06:10.381Z,24.90
2018-07-30T12:08:38.730Z,23.90
2018-07-30T12:13:35.411Z,21.50
2018-07-30T12:16:03.820Z,20.20
2018-07-30T12:18:32.139Z,19.40
2018-07-30T12:21:00.542Z,18.40
2018-07-30T12:23:28.926Z,17.90
2018-07-30T12:25:57.733Z,17.30
2018-07-30T12:28:27.046Z,17.10
2018-07-30T12:30:56.533Z,16.70
2018-07-30T12:33:25.159Z,16.10
2018-07-30T12:35:53.409Z,15.80
2018-07-30T12:38:21.875Z,15.70
2018-07-30T12:40:50.445Z,15.20
2018-07-30T12:43:18.826Z,15.50
2018-07-30T12:45:47.796Z,14.80
2018-07-30T12:48:16.112Z,14.60
2018-07-30T12:50:44.691Z,14.40
2018-07-30T12:53:13.061Z,14.20
2018-07-30T12:55:41.427Z,14.20
2018-07-30T12:58:09.816Z,14.10
2018-07-30T13:00:38.091Z,14.00
2018-07-30T13:03:06.352Z,14.10
2018-07-30T13:05:35.043Z,14.70
2018-07-30T13:08:03.420Z,15.10
2018-07-30T13:10:31.808Z,15.70
2018-07-30T13:13:00.050Z,15.60
2018-07-30T13:15:28.365Z,15.10
2018-07-30T13:17:56.664Z,15.40
2018-07-30T13:20:24.854Z,16.30
2018-07-30T13:22:53.383Z,18.00
2018-07-30T13:25:21.603Z,19.00
2018-07-30T13:27:50.503Z,20.90
2018-07-30T13:30:18.833Z,19.80
2018-07-30T13:32:47.173Z,18.70
2018-07-30T13:35:15.341Z,18.60
2018-07-30T13:37:43.821Z,18.40
2018-07-30T13:40:12.205Z,18.00
2018-07-30T13:42:40.476Z,17.30
2018-07-30T13:45:08.954Z,16.70
2018-07-30T13:47:37.169Z,16.40
2018-07-30T13:50:06.633Z,17.10
2018-07-30T13:52:34.846Z,16.80
2018-07-30T13:55:03.090Z,16.00
2018-07-30T13:57:31.299Z,16.10
2018-07-30T13:59:59.689Z,16.10
2018-07-30T14:02:27.883Z,16.20
2018-07-30T14:04:56.171Z,17.30
2018-07-30T14:07:24.678Z,16.80
2018-07-30T14:09:53.053Z,17.30
2018-07-30T14:12:22.489Z,16.90
2018-07-30T14:14:50.741Z,18.00
2018-07-30T14:17:19.598Z,18.00
2018-07-30T14:19:47.876Z,17.40
2018-07-30T14:22:16.797Z,16.80
2018-07-30T14:24:45.124Z,16.50
2018-07-30T14:27:13.330Z,16.40
2018-07-30T14:32:09.546Z,15.80
2018-07-30T14:34:38.100Z,16.20
2018-07-30T14:37:06.322Z,15.80
2018-07-30T14:39:34.593Z,15.60
2018-07-30T14:42:03.029Z,15.70
2018-07-30T14:44:31.517Z,16.00
2018-07-30T14:46:59.762Z,17.30
2018-07-30T14:49:27.981Z,18.70
2018-07-30T14:51:56.422Z,19.90
2018-07-30T14:54:24.923Z,21.10
2018-07-30T14:56:53.325Z,19.60
2018-07-30T14:59:21.728Z,18.00
2018-07-30T15:01:49.773Z,18.00
2018-07-30T15:04:18.183Z,17.20
2018-07-30T15:06:46.715Z,16.50
2018-07-30T15:09:14.958Z,15.50
2018-07-30T15:11:43.262Z,15.10
2018-07-30T15:14:11.640Z,15.00
2018-07-30T15:16:40.042Z,15.00
2018-07-30T15:19:08.678Z,15.00
2018-07-30T15:24:05.121Z,15.00
2018-07-30T15:29:01.405Z,14.60
2018-07-30T15:31:30.518Z,15.00
2018-07-30T15:33:58.975Z,15.00
2018-07-30T15:36:27.271Z,14.60
2018-07-30T15:38:55.730Z,14.50
2018-07-30T15:41:24.153Z,14.40
2018-07-30T15:43:52.437Z,14.50
2018-07-30T15:48:48.660Z,14.30
2018-07-30T15:51:16.941Z,14.90
2018-07-30T15:53:45.253Z,15.40
2018-07-30T15:56:13.497Z,15.60
2018-07-30T15:58:41.756Z,16.60
2018-07-30T16:01:09.953Z,17.20
2018-07-30T16:03:38.378Z,17.60
2018-07-30T16:06:06.975Z,17.30
2018-07-30T16:08:35.349Z,16.70
2018-07-30T16:11:03.734Z,16.10
2018-07-30T16:13:32.045Z,15.90
2018-07-30T16:16:00.277Z,15.50
2018-07-30T16:18:28.522Z,16.30
2018-07-30T16:23:25.035Z,15.90
2018-07-30T16:25:53.425Z,15.50
2018-07-30T16:28:21.718Z,15.40
2018-07-30T16:33:18.130Z,15.30
2018-07-30T16:35:46.434Z,14.60
2018-07-30T16:38:14.695Z,15.00
2018-07-30T16:40:42.990Z,15.00
2018-07-30T16:43:11.269Z,14.80
2018-07-30T16:45:39.516Z,15.10
2018-07-30T16:48:08.043Z,14.70
2018-07-30T16:50:36.307Z,14.60
2018-07-30T16:53:04.632Z,14.60
2018-07-30T16:55:32.941Z,14.90
2018-07-30T16:58:01.159Z,15.70
2018-07-30T17:00:29.465Z,16.90
2018-07-30T17:02:57.713Z,18.80
2018-07-30T17:05:25.982Z,19.80
2018-07-30T17:07:54.198Z,21.40
2018-07-30T17:10:22.693Z,22.00
2018-07-30T17:12:50.950Z,22.30
2018-07-30T17:15:19.255Z,23.10
2018-07-30T17:17:47.609Z,23.80
2018-07-30T17:20:15.828Z,24.10
2018-07-30T17:25:12.123Z,24.90
2018-07-30T17:27:40.333Z,25.30
2018-07-30T17:30:09.620Z,25.80
2018-07-30T17:32:38.187Z,26.00
2018-07-30T17:35:06.821Z,26.30
2018-07-30T17:37:35.289Z,26.70
2018-07-30T17:40:03.553Z,27.30
2018-07-30T17:42:31.825Z,27.80
2018-07-30T17:45:00.069Z,28.10
2018-07-30T17:47:28.313Z,28.30
2018-07-30T17:49:56.558Z,28.60
2018-07-30T17:52:24.786Z,28.90
2018-07-30T17:54:53.284Z,28.90
2018-07-30T17:57:21.543Z,29.30
2018-07-30T17:59:49.826Z,29.50
2018-07-30T18:02:18.889Z,29.50
2018-07-30T18:04:47.155Z,29.70
2018-07-30T18:07:15.421Z,29.90
2018-07-30T18:09:43.641Z,30.00
2018-07-30T18:12:11.871Z,30.30
2018-07-30T18:14:40.086Z,31.00
2018-07-30T18:17:08.689Z,30.60
2018-07-30T18:19:36.953Z,30.90
2018-07-30T18:22:05.233Z,31.30
2018-07-30T18:24:33.454Z,31.60
2018-07-30T18:27:01.689Z,31.60
2018-07-30T18:29:29.973Z,32.40
2018-07-30T18:31:58.284Z,32.00
2018-07-30T18:34:26.548Z,32.30
2018-07-30T18:36:54.791Z,32.40
2018-07-30T18:39:23.169Z,32.70
2018-07-30T18:41:51.381Z,32.80
2018-07-30T18:44:19.643Z,32.90
2018-07-30T18:46:47.898Z,33.30
2018-07-30T18:49:16.105Z,33.50
2018-07-30T18:51:44.336Z,33.50
2018-07-30T18:54:12.545Z,33.80
2018-07-30T18:56:40.825Z,34.10
2018-07-30T18:59:09.039Z,34.30
2018-07-30T19:01:37.569Z,34.50
2018-07-30T19:04:05.903Z,34.80
2018-07-30T19:06:34.300Z,35.40
2018-07-30T19:09:02.526Z,35.90
2018-07-30T19:11:30.759Z,36.00
2018-07-30T19:13:59.855Z,36.10
2018-07-30T19:16:28.093Z,36.30
2018-07-30T19:21:24.422Z,37.90
2018-07-30T19:23:52.681Z,38.70
2018-07-30T19:26:21.022Z,39.40
2018-07-30T19:28:49.228Z,40.20
2018-07-30T19:31:17.487Z,40.80
2018-07-30T19:33:45.699Z,41.00
2018-07-30T19:36:13.939Z,41.10
2018-07-30T19:38:42.198Z,41.40
2018-07-30T19:41:10.450Z,41.70
2018-07-30T19:46:07.178Z,42.70
2018-07-30T19:48:35.433Z,42.90
2018-07-30T19:51:03.622Z,43.20
2018-07-30T19:53:32.645Z,43.80
2018-07-30T19:56:00.870Z,44.30
2018-07-30T19:58:29.252Z,44.60
2018-07-30T20:00:57.432Z,44.60
2018-07-30T20:05:53.825Z,45.60
2018-07-30T20:08:22.321Z,45.90
2018-07-30T20:10:50.524Z,46.30
2018-07-30T20:13:19.397Z,47.00
2018-07-30T20:15:47.953Z,47.30
2018-07-30T20:18:16.234Z,48.10
2018-07-30T20:20:44.495Z,48.60
2018-07-30T20:23:12.735Z,49.40
2018-07-30T20:25:41.013Z,49.90
2018-07-30T20:28:09.294Z,50.10
2018-07-30T20:30:37.683Z,50.40
2018-07-30T20:33:06.171Z,50.40
2018-07-30T20:35:34.403Z,50.00
2018-07-30T20:38:02.649Z,49.70
2018-07-30T20:40:30.986Z,49.70
2018-07-30T20:42:59.233Z,50.00
2018-07-30T20:45:27.486Z,50.00
2018-07-30T20:47:55.721Z,49.70
2018-07-30T20:50:24.569Z,50.50
2018-07-30T20:52:53.077Z,50.80
2018-07-30T20:55:21.346Z,51.10
2018-07-30T20:57:50.194Z,51.10
2018-07-30T21:00:18.432Z,51.20
2018-07-30T21:02:46.677Z,52.60
2018-07-30T21:05:14.910Z,52.20
2018-07-30T21:07:43.138Z,52.40
2018-07-30T21:10:11.349Z,52.80
2018-07-30T21:15:08.598Z,53.50
2018-07-30T21:17:36.807Z,53.70
2018-07-30T21:20:05.371Z,54.00
2018-07-30T21:22:33.589Z,54.30
2018-07-30T21:25:01.850Z,55.10
2018-07-30T21:27:30.054Z,55.50
2018-07-30T21:29:58.308Z,56.30
2018-07-30T21:32:26.561Z,56.80
2018-07-30T21:34:54.786Z,57.20
2018-07-30T21:38:52.750Z,57.90
2018-07-30T21:41:21.149Z,58.50
2018-07-30T21:43:49.365Z,59.90
2018-07-30T21:46:17.596Z,61.80
2018-07-30T21:48:45.861Z,62.70
2018-07-30T21:51:14.121Z,62.60
2018-07-30T21:53:42.388Z,62.90
2018-07-30T21:56:10.635Z,63.00
2018-07-30T22:01:06.994Z,63.30
2018-07-30T22:03:35.209Z,62.90
2018-07-30T22:06:03.446Z,62.90
2018-07-30T22:08:32.259Z,62.90
2018-07-30T22:11:00.507Z,62.90
2018-07-30T22:13:28.737Z,63.50
2018-07-30T22:15:56.948Z,63.90
2018-07-30T22:18:25.169Z,64.70
2018-07-30T22:20:53.657Z,65.50
2018-07-30T22:23:21.882Z,66.40
2018-07-30T22:28:18.290Z,69.70
2018-07-30T22:30:46.584Z,71.40
2018-07-30T22:33:14.758Z,73.10
2018-07-30T22:35:43.007Z,74.70
2018-07-30T22:38:11.226Z,76.40
2018-07-30T22:43:08.520Z,77.20
2018-07-30T22:45:36.725Z,77.40
2018-07-30T22:48:04.997Z,78.50
2018-07-30T22:50:33.262Z,79.00
2018-07-30T22:53:01.508Z,79.30
2018-07-30T22:57:57.909Z,79.40
2018-07-30T23:00:26.134Z,79.50
2018-07-30T23:02:54.354Z,79.50
2018-07-30T23:05:22.849Z,79.50
2018-07-30T23:07:51.130Z,80.60
2018-07-30T23:10:19.378Z,80.70
2018-07-30T23:12:47.609Z,80.50
2018-07-30T23:17:43.818Z,80.30
2018-07-30T23:20:12.037Z,80.80
2018-07-30T23:22:40.254Z,81.20
2018-07-30T23:25:08.550Z,80.80
2018-07-30T23:27:36.767Z,81.10
2018-07-30T23:30:05.382Z,81.40
2018-07-30T23:32:33.666Z,82.00
2018-07-30T23:35:01.927Z,82.20
2018-07-30T23:37:30.154Z,82.90
2018-07-30T23:39:58.371Z,83.60
2018-07-30T23:42:26.595Z,84.40
2018-07-30T23:44:54.837Z,85.40
2018-07-30T23:47:23.166Z,86.00
2018-07-30T23:49:51.385Z,86.00
2018-07-30T23:52:19.592Z,86.40
2018-07-30T23:54:48.027Z,87.40
2018-07-30T23:57:16.241Z,87.90
2018-07-30T23:59:44.499Z,89.40
